sensor_id;sensor_type;location;lat;lon;timestamp;temperature;humidity
35497;DHT22;21609;49.298;6.844;2022-09-30T00:01:19;18.60;56.00
35497;DHT22;21609;49.298;6.844;2022-09-30T00:03:45;18.60;56.00
35497;DHT22;21609;49.298;6.844;2022-09-30T00:06:12;18.70;56.10
35497;DHT22;21609;49.298;6.844;2022-09-30T00:08:38;18.60;56.00
35497;DHT22;21609;49.298;6.844;2022-09-30T00:11:11;18.60;56.10
35497;DHT22;21609;49.298;6.844;2022-09-30T00:13:41;18.60;56.00
35497;DHT22;21609;49.298;6.844;2022-09-30T00:16:08;18.60;56.10
35497;DHT22;21609;49.298;6.844;2022-09-30T00:18:34;18.60;56.10
35497;DHT22;21609;49.298;6.844;2022-09-30T00:21:01;18.60;56.10
35497;DHT22;21609;49.298;6.844;2022-09-30T00:23:27;18.60;56.10
35497;DHT22;21609;49.298;6.844;2022-09-30T00:26:04;18.60;56.10
35497;DHT22;21609;49.298;6.844;2022-09-30T00:28:30;18.60;56.10
35497;DHT22;21609;49.298;6.844;2022-09-30T00:31:01;18.60;56.10
35497;DHT22;21609;49.298;6.844;2022-09-30T00:33:28;18.60;56.10
35497;DHT22;21609;49.298;6.844;2022-09-30T00:35:53;18.50;56.10
35497;DHT22;21609;49.298;6.844;2022-09-30T00:38:19;18.50;56.10
35497;DHT22;21609;49.298;6.844;2022-09-30T00:40:45;18.50;56.10
35497;DHT22;21609;49.298;6.844;2022-09-30T00:43:15;18.50;56.10
35497;DHT22;21609;49.298;6.844;2022-09-30T00:45:55;18.50;56.10
35497;DHT22;21609;49.298;6.844;2022-09-30T00:48:32;18.50;56.10
35497;DHT22;21609;49.298;6.844;2022-09-30T00:51:00;18.50;56.10
35497;DHT22;21609;49.298;6.844;2022-09-30T00:53:30;18.50;56.10
35497;DHT22;21609;49.298;6.844;2022-09-30T00:56:00;18.50;56.20
35497;DHT22;21609;49.298;6.844;2022-09-30T00:58:44;18.50;56.10
35497;DHT22;21609;49.298;6.844;2022-09-30T01:01:12;18.50;56.20
35497;DHT22;21609;49.298;6.844;2022-09-30T01:03:46;18.50;56.20
35497;DHT22;21609;49.298;6.844;2022-09-30T01:06:15;18.50;56.20
35497;DHT22;21609;49.298;6.844;2022-09-30T01:08:41;18.40;56.10
35497;DHT22;21609;49.298;6.844;2022-09-30T01:11:08;18.40;56.10
35497;DHT22;21609;49.298;6.844;2022-09-30T01:13:34;18.40;56.10
35497;DHT22;21609;49.298;6.844;2022-09-30T01:27:21;18.40;56.20
35497;DHT22;21609;49.298;6.844;2022-09-30T01:38:39;18.30;56.20
35497;DHT22;21609;49.298;6.844;2022-09-30T01:44:04;18.30;56.20
35497;DHT22;21609;49.298;6.844;2022-09-30T01:46:41;18.30;56.20
35497;DHT22;21609;49.298;6.844;2022-09-30T01:52:03;18.30;56.20
35497;DHT22;21609;49.298;6.844;2022-09-30T01:54:39;18.30;56.20
35497;DHT22;21609;49.298;6.844;2022-09-30T01:57:28;18.30;56.30
35497;DHT22;21609;49.298;6.844;2022-09-30T02:00:07;18.20;56.20
35497;DHT22;21609;49.298;6.844;2022-09-30T02:02:55;18.20;56.20
35497;DHT22;21609;49.298;6.844;2022-09-30T02:05:36;18.20;56.20
35497;DHT22;21609;49.298;6.844;2022-09-30T02:08:17;18.20;56.20
35497;DHT22;21609;49.298;6.844;2022-09-30T02:10:50;18.20;56.20
35497;DHT22;21609;49.298;6.844;2022-09-30T02:13:29;18.20;56.20
35497;DHT22;21609;49.298;6.844;2022-09-30T02:15:59;18.20;56.20
35497;DHT22;21609;49.298;6.844;2022-09-30T02:18:46;18.20;56.20
35497;DHT22;21609;49.298;6.844;2022-09-30T02:21:16;18.20;56.20
35497;DHT22;21609;49.298;6.844;2022-09-30T02:23:44;18.20;56.20
35497;DHT22;21609;49.298;6.844;2022-09-30T02:26:18;18.20;56.30
35497;DHT22;21609;49.298;6.844;2022-09-30T02:28:48;18.20;56.30
35497;DHT22;21609;49.298;6.844;2022-09-30T02:31:17;18.20;56.20
35497;DHT22;21609;49.298;6.844;2022-09-30T02:34:12;18.20;56.20
35497;DHT22;21609;49.298;6.844;2022-09-30T02:36:43;18.20;56.30
35497;DHT22;21609;49.298;6.844;2022-09-30T02:39:15;18.20;56.30
35497;DHT22;21609;49.298;6.844;2022-09-30T02:41:48;18.10;56.20
35497;DHT22;21609;49.298;6.844;2022-09-30T02:44:16;18.10;56.20
35497;DHT22;21609;49.298;6.844;2022-09-30T02:46:54;18.10;56.20
35497;DHT22;21609;49.298;6.844;2022-09-30T02:52:33;18.10;56.30
35497;DHT22;21609;49.298;6.844;2022-09-30T02:55:16;18.10;56.20
35497;DHT22;21609;49.298;6.844;2022-09-30T02:58:05;18.10;56.30
35497;DHT22;21609;49.298;6.844;2022-09-30T03:00:34;18.10;56.30
35497;DHT22;21609;49.298;6.844;2022-09-30T03:03:06;18.10;56.30
35497;DHT22;21609;49.298;6.844;2022-09-30T03:05:33;18.10;56.30
35497;DHT22;21609;49.298;6.844;2022-09-30T03:08:00;18.10;56.30
35497;DHT22;21609;49.298;6.844;2022-09-30T03:10:26;18.10;56.30
35497;DHT22;21609;49.298;6.844;2022-09-30T03:16:07;18.00;56.20
35497;DHT22;21609;49.298;6.844;2022-09-30T03:24:22;18.00;56.30
35497;DHT22;21609;49.298;6.844;2022-09-30T03:29:58;18.00;56.30
35497;DHT22;21609;49.298;6.844;2022-09-30T03:35:49;18.00;56.30
35497;DHT22;21609;49.298;6.844;2022-09-30T03:46:20;17.90;56.30
35497;DHT22;21609;49.298;6.844;2022-09-30T03:48:50;17.90;56.30
35497;DHT22;21609;49.298;6.844;2022-09-30T03:51:17;18.00;56.40
35497;DHT22;21609;49.298;6.844;2022-09-30T03:53:44;17.90;56.30
35497;DHT22;21609;49.298;6.844;2022-09-30T03:56:11;17.90;56.30
35497;DHT22;21609;49.298;6.844;2022-09-30T03:58:41;17.90;56.40
35497;DHT22;21609;49.298;6.844;2022-09-30T04:01:07;17.90;56.40
35497;DHT22;21609;49.298;6.844;2022-09-30T04:03:35;17.90;56.40
35497;DHT22;21609;49.298;6.844;2022-09-30T04:06:00;17.90;56.40
35497;DHT22;21609;49.298;6.844;2022-09-30T04:08:27;17.90;56.40
35497;DHT22;21609;49.298;6.844;2022-09-30T04:10:52;17.90;56.40
35497;DHT22;21609;49.298;6.844;2022-09-30T04:13:18;17.90;56.40
35497;DHT22;21609;49.298;6.844;2022-09-30T04:15:44;17.90;56.30
35497;DHT22;21609;49.298;6.844;2022-09-30T04:18:17;17.90;56.40
35497;DHT22;21609;49.298;6.844;2022-09-30T04:20:42;17.80;56.40
35497;DHT22;21609;49.298;6.844;2022-09-30T04:23:08;17.90;56.50
35497;DHT22;21609;49.298;6.844;2022-09-30T04:25:34;17.90;56.50
35497;DHT22;21609;49.298;6.844;2022-09-30T04:28:00;17.90;56.50
35497;DHT22;21609;49.298;6.844;2022-09-30T04:30:25;17.80;56.40
35497;DHT22;21609;49.298;6.844;2022-09-30T04:32:51;17.80;56.40
35497;DHT22;21609;49.298;6.844;2022-09-30T04:35:16;17.80;56.40
35497;DHT22;21609;49.298;6.844;2022-09-30T04:37:46;17.80;56.40
35497;DHT22;21609;49.298;6.844;2022-09-30T04:40:14;17.80;56.40
35497;DHT22;21609;49.298;6.844;2022-09-30T04:42:40;17.80;56.70
35497;DHT22;21609;49.298;6.844;2022-09-30T04:45:09;17.80;56.50
35497;DHT22;21609;49.298;6.844;2022-09-30T04:47:34;17.80;56.50
35497;DHT22;21609;49.298;6.844;2022-09-30T04:50:00;17.80;56.50
35497;DHT22;21609;49.298;6.844;2022-09-30T04:52:26;17.80;56.50
35497;DHT22;21609;49.298;6.844;2022-09-30T04:54:51;17.80;56.50
35497;DHT22;21609;49.298;6.844;2022-09-30T04:57:19;17.70;56.70
35497;DHT22;21609;49.298;6.844;2022-09-30T04:59:56;17.70;56.50
35497;DHT22;21609;49.298;6.844;2022-09-30T05:02:22;17.80;56.50
35497;DHT22;21609;49.298;6.844;2022-09-30T05:04:47;17.80;56.50
35497;DHT22;21609;49.298;6.844;2022-09-30T05:07:13;17.70;56.50
35497;DHT22;21609;49.298;6.844;2022-09-30T05:09:38;17.70;56.50
35497;DHT22;21609;49.298;6.844;2022-09-30T05:12:04;17.70;56.60
35497;DHT22;21609;49.298;6.844;2022-09-30T05:14:29;17.70;56.60
35497;DHT22;21609;49.298;6.844;2022-09-30T05:16:55;17.70;56.80
35497;DHT22;21609;49.298;6.844;2022-09-30T05:19:21;17.70;56.60
35497;DHT22;21609;49.298;6.844;2022-09-30T05:21:46;17.70;56.60
35497;DHT22;21609;49.298;6.844;2022-09-30T05:24:12;17.70;56.60
35497;DHT22;21609;49.298;6.844;2022-09-30T05:26:38;17.70;56.60
35497;DHT22;21609;49.298;6.844;2022-09-30T05:29:05;17.70;56.70
35497;DHT22;21609;49.298;6.844;2022-09-30T05:31:30;17.70;56.60
35497;DHT22;21609;49.298;6.844;2022-09-30T05:33:56;17.60;56.60
35497;DHT22;21609;49.298;6.844;2022-09-30T05:36:21;17.60;56.60
35497;DHT22;21609;49.298;6.844;2022-09-30T05:38:50;17.60;56.70
35497;DHT22;21609;49.298;6.844;2022-09-30T05:41:16;17.70;56.70
35497;DHT22;21609;49.298;6.844;2022-09-30T05:43:44;17.60;56.60
35497;DHT22;21609;49.298;6.844;2022-09-30T05:46:10;17.60;56.60
35497;DHT22;21609;49.298;6.844;2022-09-30T05:48:35;17.60;56.70
35497;DHT22;21609;49.298;6.844;2022-09-30T05:51:01;17.60;56.60
35497;DHT22;21609;49.298;6.844;2022-09-30T05:53:28;17.60;56.70
35497;DHT22;21609;49.298;6.844;2022-09-30T05:55:53;17.60;57.30
35497;DHT22;21609;49.298;6.844;2022-09-30T05:58:19;17.60;56.90
35497;DHT22;21609;49.298;6.844;2022-09-30T06:00:47;17.60;56.90
35497;DHT22;21609;49.298;6.844;2022-09-30T06:03:13;17.60;57.20
35497;DHT22;21609;49.298;6.844;2022-09-30T06:05:39;17.60;57.40
35497;DHT22;21609;49.298;6.844;2022-09-30T06:08:05;17.60;57.20
35497;DHT22;21609;49.298;6.844;2022-09-30T06:10:34;17.60;57.20
35497;DHT22;21609;49.298;6.844;2022-09-30T06:13:02;17.60;57.00
35497;DHT22;21609;49.298;6.844;2022-09-30T06:15:28;17.60;57.00
35497;DHT22;21609;49.298;6.844;2022-09-30T06:17:54;17.60;57.00
35497;DHT22;21609;49.298;6.844;2022-09-30T06:20:20;17.60;57.00
35497;DHT22;21609;49.298;6.844;2022-09-30T06:22:46;17.60;57.00
35497;DHT22;21609;49.298;6.844;2022-09-30T06:25:11;17.60;57.00
35497;DHT22;21609;49.298;6.844;2022-09-30T06:27:37;17.50;56.90
35497;DHT22;21609;49.298;6.844;2022-09-30T06:30:06;17.60;56.90
35497;DHT22;21609;49.298;6.844;2022-09-30T06:32:32;17.60;56.90
35497;DHT22;21609;49.298;6.844;2022-09-30T06:34:58;17.50;57.40
35497;DHT22;21609;49.298;6.844;2022-09-30T06:37:23;17.50;56.90
35497;DHT22;21609;49.298;6.844;2022-09-30T06:39:49;17.50;56.90
35497;DHT22;21609;49.298;6.844;2022-09-30T06:42:16;17.50;56.90
35497;DHT22;21609;49.298;6.844;2022-09-30T06:44:42;17.50;56.80
35497;DHT22;21609;49.298;6.844;2022-09-30T06:47:09;17.50;56.90
35497;DHT22;21609;49.298;6.844;2022-09-30T06:49:34;17.50;56.90
35497;DHT22;21609;49.298;6.844;2022-09-30T06:52:00;17.50;56.90
35497;DHT22;21609;49.298;6.844;2022-09-30T06:54:27;17.50;57.00
35497;DHT22;21609;49.298;6.844;2022-09-30T06:56:53;17.50;56.90
35497;DHT22;21609;49.298;6.844;2022-09-30T06:59:22;17.50;56.90
35497;DHT22;21609;49.298;6.844;2022-09-30T07:01:48;17.50;56.90
35497;DHT22;21609;49.298;6.844;2022-09-30T07:04:13;17.50;57.50
35497;DHT22;21609;49.298;6.844;2022-09-30T07:06:39;17.50;58.30
35497;DHT22;21609;49.298;6.844;2022-09-30T07:09:06;17.50;57.50
35497;DHT22;21609;49.298;6.844;2022-09-30T07:11:33;17.60;57.70
35497;DHT22;21609;49.298;6.844;2022-09-30T07:13:58;17.60;57.40
35497;DHT22;21609;49.298;6.844;2022-09-30T07:16:24;17.70;57.40
35497;DHT22;21609;49.298;6.844;2022-09-30T07:18:50;17.70;57.30
35497;DHT22;21609;49.298;6.844;2022-09-30T07:21:16;17.80;57.30
35497;DHT22;21609;49.298;6.844;2022-09-30T07:23:43;17.80;57.10
35497;DHT22;21609;49.298;6.844;2022-09-30T07:26:17;17.90;57.10
35497;DHT22;21609;49.298;6.844;2022-09-30T07:28:43;18.00;57.10
35497;DHT22;21609;49.298;6.844;2022-09-30T07:31:12;18.00;56.90
35497;DHT22;21609;49.298;6.844;2022-09-30T07:33:40;18.10;56.80
35497;DHT22;21609;49.298;6.844;2022-09-30T07:36:06;18.20;57.00
35497;DHT22;21609;49.298;6.844;2022-09-30T07:38:34;18.20;57.10
35497;DHT22;21609;49.298;6.844;2022-09-30T07:41:12;18.20;57.20
35497;DHT22;21609;49.298;6.844;2022-09-30T07:43:41;18.20;57.30
35497;DHT22;21609;49.298;6.844;2022-09-30T07:46:09;18.30;57.30
35497;DHT22;21609;49.298;6.844;2022-09-30T07:48:38;18.30;57.20
35497;DHT22;21609;49.298;6.844;2022-09-30T07:51:17;18.30;57.30
35497;DHT22;21609;49.298;6.844;2022-09-30T07:53:45;18.30;57.20
35497;DHT22;21609;49.298;6.844;2022-09-30T07:56:12;18.30;57.10
35497;DHT22;21609;49.298;6.844;2022-09-30T07:58:38;18.40;57.10
35497;DHT22;21609;49.298;6.844;2022-09-30T08:01:05;18.50;57.10
35497;DHT22;21609;49.298;6.844;2022-09-30T08:03:34;18.50;56.90
35497;DHT22;21609;49.298;6.844;2022-09-30T08:06:12;18.60;57.00
35497;DHT22;21609;49.298;6.844;2022-09-30T08:08:38;18.60;56.90
35497;DHT22;21609;49.298;6.844;2022-09-30T08:11:04;18.70;56.80
35497;DHT22;21609;49.298;6.844;2022-09-30T08:13:30;18.70;56.80
35497;DHT22;21609;49.298;6.844;2022-09-30T08:15:56;18.70;56.80
35497;DHT22;21609;49.298;6.844;2022-09-30T08:18:22;18.80;56.70
35497;DHT22;21609;49.298;6.844;2022-09-30T08:20:48;18.80;56.70
35497;DHT22;21609;49.298;6.844;2022-09-30T08:23:14;18.80;56.70
35497;DHT22;21609;49.298;6.844;2022-09-30T08:25:40;18.90;57.30
35497;DHT22;21609;49.298;6.844;2022-09-30T08:28:05;19.00;56.60
35497;DHT22;21609;49.298;6.844;2022-09-30T08:30:34;19.10;56.50
35497;DHT22;21609;49.298;6.844;2022-09-30T08:33:00;19.10;56.50
35497;DHT22;21609;49.298;6.844;2022-09-30T08:35:26;19.10;56.50
35497;DHT22;21609;49.298;6.844;2022-09-30T08:37:51;19.20;56.50
35497;DHT22;21609;49.298;6.844;2022-09-30T08:40:22;19.20;56.50
35497;DHT22;21609;49.298;6.844;2022-09-30T08:45:53;19.30;56.50
35497;DHT22;21609;49.298;6.844;2022-09-30T08:48:31;19.30;56.40
35497;DHT22;21609;49.298;6.844;2022-09-30T08:51:29;19.40;56.40
35497;DHT22;21609;49.298;6.844;2022-09-30T08:53:54;19.40;56.30
35497;DHT22;21609;49.298;6.844;2022-09-30T08:56:23;19.40;56.20
35497;DHT22;21609;49.298;6.844;2022-09-30T08:58:54;19.40;56.20
35497;DHT22;21609;49.298;6.844;2022-09-30T09:01:30;19.40;56.10
35497;DHT22;21609;49.298;6.844;2022-09-30T09:03:57;19.50;56.10
35497;DHT22;21609;49.298;6.844;2022-09-30T09:09:17;19.50;56.00
35497;DHT22;21609;49.298;6.844;2022-09-30T09:20:17;19.70;55.60
35497;DHT22;21609;49.298;6.844;2022-09-30T09:22:45;19.80;55.80
35497;DHT22;21609;49.298;6.844;2022-09-30T09:25:14;19.90;55.60
35497;DHT22;21609;49.298;6.844;2022-09-30T09:27:52;19.90;55.50
35497;DHT22;21609;49.298;6.844;2022-09-30T09:30:23;19.90;55.60
35497;DHT22;21609;49.298;6.844;2022-09-30T09:32:57;20.00;55.60
35497;DHT22;21609;49.298;6.844;2022-09-30T09:35:45;20.00;55.60
35497;DHT22;21609;49.298;6.844;2022-09-30T09:38:33;20.10;55.50
35497;DHT22;21609;49.298;6.844;2022-09-30T09:51:44;20.20;55.20
35497;DHT22;21609;49.298;6.844;2022-09-30T09:54:15;20.30;55.60
35497;DHT22;21609;49.298;6.844;2022-09-30T09:56:43;20.30;55.60
35497;DHT22;21609;49.298;6.844;2022-09-30T10:01:37;20.40;55.20
35497;DHT22;21609;49.298;6.844;2022-09-30T10:04:16;20.40;55.30
35497;DHT22;21609;49.298;6.844;2022-09-30T10:06:57;20.40;55.10
35497;DHT22;21609;49.298;6.844;2022-09-30T10:09:26;20.50;55.10
35497;DHT22;21609;49.298;6.844;2022-09-30T10:14:39;20.60;55.00
35497;DHT22;21609;49.298;6.844;2022-09-30T10:17:20;20.50;55.10
35497;DHT22;21609;49.298;6.844;2022-09-30T10:19:51;20.60;55.10
35497;DHT22;21609;49.298;6.844;2022-09-30T10:22:24;20.60;55.10
35497;DHT22;21609;49.298;6.844;2022-09-30T10:24:50;20.60;55.70
35497;DHT22;21609;49.298;6.844;2022-09-30T10:27:31;20.60;55.10
35497;DHT22;21609;49.298;6.844;2022-09-30T10:29:57;20.70;55.10
35497;DHT22;21609;49.298;6.844;2022-09-30T10:32:24;20.70;55.70
35497;DHT22;21609;49.298;6.844;2022-09-30T10:35:06;20.70;55.70
35497;DHT22;21609;49.298;6.844;2022-09-30T10:37:52;20.70;55.10
35497;DHT22;21609;49.298;6.844;2022-09-30T10:40:18;20.80;55.00
35497;DHT22;21609;49.298;6.844;2022-09-30T10:42:47;20.80;55.10
35497;DHT22;21609;49.298;6.844;2022-09-30T10:45:22;20.90;55.20
35497;DHT22;21609;49.298;6.844;2022-09-30T10:47:52;20.80;55.00
35497;DHT22;21609;49.298;6.844;2022-09-30T10:50:21;20.90;55.20
35497;DHT22;21609;49.298;6.844;2022-09-30T10:57:48;20.90;55.00
35497;DHT22;21609;49.298;6.844;2022-09-30T11:00:17;21.00;55.00
35497;DHT22;21609;49.298;6.844;2022-09-30T11:03:10;21.00;55.00
35497;DHT22;21609;49.298;6.844;2022-09-30T11:05:39;21.00;55.00
35497;DHT22;21609;49.298;6.844;2022-09-30T11:08:32;21.10;55.10
35497;DHT22;21609;49.298;6.844;2022-09-30T11:11:13;21.10;54.80
35497;DHT22;21609;49.298;6.844;2022-09-30T11:19:25;21.20;54.80
35497;DHT22;21609;49.298;6.844;2022-09-30T11:24:38;21.20;54.90
35497;DHT22;21609;49.298;6.844;2022-09-30T11:27:23;21.20;54.60
35497;DHT22;21609;49.298;6.844;2022-09-30T11:30:11;21.30;54.70
35497;DHT22;21609;49.298;6.844;2022-09-30T11:46:08;21.40;54.40
35497;DHT22;21609;49.298;6.844;2022-09-30T11:58:59;21.50;54.90
35497;DHT22;21609;49.298;6.844;2022-09-30T12:01:30;21.60;54.30
35497;DHT22;21609;49.298;6.844;2022-09-30T12:04:00;21.60;54.20
35497;DHT22;21609;49.298;6.844;2022-09-30T12:06:36;21.70;54.30
35497;DHT22;21609;49.298;6.844;2022-09-30T12:09:10;21.70;54.20
35497;DHT22;21609;49.298;6.844;2022-09-30T12:14:32;21.70;54.20
35497;DHT22;21609;49.298;6.844;2022-09-30T12:17:01;21.80;54.20
35497;DHT22;21609;49.298;6.844;2022-09-30T12:19:31;21.80;54.30
35497;DHT22;21609;49.298;6.844;2022-09-30T12:22:20;21.80;54.10
35497;DHT22;21609;49.298;6.844;2022-09-30T12:24:46;21.80;53.60
35497;DHT22;21609;49.298;6.844;2022-09-30T12:27:39;21.90;53.80
35497;DHT22;21609;49.298;6.844;2022-09-30T12:30:19;21.90;53.70
35497;DHT22;21609;49.298;6.844;2022-09-30T12:32:55;22.00;53.60
35497;DHT22;21609;49.298;6.844;2022-09-30T12:35:37;22.00;54.00
35497;DHT22;21609;49.298;6.844;2022-09-30T12:49:32;22.10;53.30
35497;DHT22;21609;49.298;6.844;2022-09-30T12:52:14;22.20;53.80
35497;DHT22;21609;49.298;6.844;2022-09-30T12:54:51;22.20;53.40
35497;DHT22;21609;49.298;6.844;2022-09-30T12:57:25;22.30;53.90
35497;DHT22;21609;49.298;6.844;2022-09-30T12:59:55;22.30;53.60
35497;DHT22;21609;49.298;6.844;2022-09-30T13:04:52;22.40;53.70
35497;DHT22;21609;49.298;6.844;2022-09-30T13:07:20;22.50;53.80
35497;DHT22;21609;49.298;6.844;2022-09-30T13:10:01;22.50;53.60
35497;DHT22;21609;49.298;6.844;2022-09-30T13:12:42;22.50;53.30
35497;DHT22;21609;49.298;6.844;2022-09-30T13:17:52;22.40;52.80
35497;DHT22;21609;49.298;6.844;2022-09-30T13:26:34;22.40;52.80
35497;DHT22;21609;49.298;6.844;2022-09-30T13:31:29;22.50;53.10
35497;DHT22;21609;49.298;6.844;2022-09-30T13:36:40;22.50;53.00
35497;DHT22;21609;49.298;6.844;2022-09-30T13:41:43;22.70;52.50
35497;DHT22;21609;49.298;6.844;2022-09-30T13:44:19;22.70;52.80
35497;DHT22;21609;49.298;6.844;2022-09-30T13:46:57;22.70;53.10
35497;DHT22;21609;49.298;6.844;2022-09-30T13:51:58;22.70;53.20
35497;DHT22;21609;49.298;6.844;2022-09-30T13:54:29;22.80;53.50
35497;DHT22;21609;49.298;6.844;2022-09-30T13:56:57;22.80;53.50
35497;DHT22;21609;49.298;6.844;2022-09-30T14:00:33;22.90;53.40
35497;DHT22;21609;49.298;6.844;2022-09-30T14:02:59;22.90;52.50
35497;DHT22;21609;49.298;6.844;2022-09-30T14:05:45;23.00;52.80
35497;DHT22;21609;49.298;6.844;2022-09-30T14:08:32;23.00;52.60
35497;DHT22;21609;49.298;6.844;2022-09-30T14:19:18;23.20;51.90
35497;DHT22;21609;49.298;6.844;2022-09-30T14:21:56;23.30;52.10
35497;DHT22;21609;49.298;6.844;2022-09-30T14:24:30;23.30;52.00
35497;DHT22;21609;49.298;6.844;2022-09-30T14:30:19;23.40;51.60
35497;DHT22;21609;49.298;6.844;2022-09-30T14:35:26;23.30;51.00
35497;DHT22;21609;49.298;6.844;2022-09-30T14:40:34;23.30;51.50
35497;DHT22;21609;49.298;6.844;2022-09-30T14:43:03;23.20;51.30
35497;DHT22;21609;49.298;6.844;2022-09-30T14:45:41;23.20;51.20
35497;DHT22;21609;49.298;6.844;2022-09-30T14:48:10;23.20;51.00
35497;DHT22;21609;49.298;6.844;2022-09-30T14:50:54;23.10;50.90
35497;DHT22;21609;49.298;6.844;2022-09-30T14:56:29;23.20;50.60
35497;DHT22;21609;49.298;6.844;2022-09-30T14:58:56;23.20;50.40
35497;DHT22;21609;49.298;6.844;2022-09-30T15:01:24;23.20;50.50
35497;DHT22;21609;49.298;6.844;2022-09-30T15:04:27;23.10;50.50
35497;DHT22;21609;49.298;6.844;2022-09-30T15:06:50;23.10;50.60
35497;DHT22;21609;49.298;6.844;2022-09-30T15:09:35;23.00;50.80
35497;DHT22;21609;49.298;6.844;2022-09-30T15:12:08;23.00;50.60
35497;DHT22;21609;49.298;6.844;2022-09-30T15:14:48;23.00;50.60
35497;DHT22;21609;49.298;6.844;2022-09-30T15:19:44;22.90;50.80
35497;DHT22;21609;49.298;6.844;2022-09-30T15:22:11;22.90;50.70
35497;DHT22;21609;49.298;6.844;2022-09-30T15:24:38;22.90;50.70
35497;DHT22;21609;49.298;6.844;2022-09-30T15:27:05;22.90;50.70
35497;DHT22;21609;49.298;6.844;2022-09-30T15:29:35;22.80;50.60
35497;DHT22;21609;49.298;6.844;2022-09-30T15:32:03;22.80;50.70
35497;DHT22;21609;49.298;6.844;2022-09-30T15:34:29;22.80;50.60
35497;DHT22;21609;49.298;6.844;2022-09-30T15:37:00;22.70;50.70
35497;DHT22;21609;49.298;6.844;2022-09-30T15:39:38;22.70;50.60
35497;DHT22;21609;49.298;6.844;2022-09-30T15:42:40;22.60;50.80
35497;DHT22;21609;49.298;6.844;2022-09-30T15:45:32;22.50;50.60
35497;DHT22;21609;49.298;6.844;2022-09-30T15:50:47;22.40;51.00
35497;DHT22;21609;49.298;6.844;2022-09-30T15:55:49;22.30;50.20
35497;DHT22;21609;49.298;6.844;2022-09-30T15:58:37;22.20;50.80
35497;DHT22;21609;49.298;6.844;2022-09-30T16:01:10;22.20;50.90
35497;DHT22;21609;49.298;6.844;2022-09-30T16:03:38;22.20;51.00
35497;DHT22;21609;49.298;6.844;2022-09-30T16:06:09;22.20;51.10
35497;DHT22;21609;49.298;6.844;2022-09-30T16:08:42;22.10;51.20
35497;DHT22;21609;49.298;6.844;2022-09-30T16:11:09;22.10;51.20
35497;DHT22;21609;49.298;6.844;2022-09-30T16:13:42;22.10;51.90
35497;DHT22;21609;49.298;6.844;2022-09-30T16:16:18;22.00;51.40
35497;DHT22;21609;49.298;6.844;2022-09-30T16:18:44;22.00;51.40
35497;DHT22;21609;49.298;6.844;2022-09-30T16:21:44;22.00;51.40
35497;DHT22;21609;49.298;6.844;2022-09-30T16:27:15;21.90;51.40
35497;DHT22;21609;49.298;6.844;2022-09-30T16:29:45;21.90;51.30
35497;DHT22;21609;49.298;6.844;2022-09-30T16:32:11;21.80;51.40
35497;DHT22;21609;49.298;6.844;2022-09-30T16:34:39;21.80;51.60
35497;DHT22;21609;49.298;6.844;2022-09-30T16:37:12;21.80;51.80
35497;DHT22;21609;49.298;6.844;2022-09-30T16:39:39;21.80;51.70
35497;DHT22;21609;49.298;6.844;2022-09-30T16:42:05;21.70;51.50
35497;DHT22;21609;49.298;6.844;2022-09-30T16:44:31;21.70;51.60
35497;DHT22;21609;49.298;6.844;2022-09-30T16:47:01;21.70;51.50
35497;DHT22;21609;49.298;6.844;2022-09-30T16:49:27;21.60;51.60
35497;DHT22;21609;49.298;6.844;2022-09-30T16:51:52;21.60;51.70
35497;DHT22;21609;49.298;6.844;2022-09-30T16:54:18;21.70;51.80
35497;DHT22;21609;49.298;6.844;2022-09-30T16:56:44;21.70;51.80
35497;DHT22;21609;49.298;6.844;2022-09-30T16:59:12;21.60;51.90
35497;DHT22;21609;49.298;6.844;2022-09-30T17:01:38;21.60;51.90
35497;DHT22;21609;49.298;6.844;2022-09-30T17:04:04;21.60;52.00
35497;DHT22;21609;49.298;6.844;2022-09-30T17:06:31;21.60;52.00
35497;DHT22;21609;49.298;6.844;2022-09-30T17:08:57;21.60;52.10
35497;DHT22;21609;49.298;6.844;2022-09-30T17:11:26;21.60;52.20
35497;DHT22;21609;49.298;6.844;2022-09-30T17:13:54;21.50;52.30
35497;DHT22;21609;49.298;6.844;2022-09-30T17:16:19;21.60;52.30
35497;DHT22;21609;49.298;6.844;2022-09-30T17:18:46;21.50;52.30
35497;DHT22;21609;49.298;6.844;2022-09-30T17:21:15;21.50;52.30
35497;DHT22;21609;49.298;6.844;2022-09-30T17:23:41;21.50;52.40
35497;DHT22;21609;49.298;6.844;2022-09-30T17:26:06;21.50;52.50
35497;DHT22;21609;49.298;6.844;2022-09-30T17:28:32;21.50;52.50
35497;DHT22;21609;49.298;6.844;2022-09-30T17:31:01;21.40;52.40
35497;DHT22;21609;49.298;6.844;2022-09-30T17:33:32;21.40;52.40
35497;DHT22;21609;49.298;6.844;2022-09-30T17:36:02;21.40;52.30
35497;DHT22;21609;49.298;6.844;2022-09-30T17:38:28;21.40;52.40
35497;DHT22;21609;49.298;6.844;2022-09-30T17:40:54;21.40;52.40
35497;DHT22;21609;49.298;6.844;2022-09-30T17:43:38;21.40;52.50
35497;DHT22;21609;49.298;6.844;2022-09-30T17:46:04;21.40;52.40
35497;DHT22;21609;49.298;6.844;2022-09-30T17:48:30;21.30;52.40
35497;DHT22;21609;49.298;6.844;2022-09-30T17:50:56;21.40;52.50
35497;DHT22;21609;49.298;6.844;2022-09-30T17:53:22;21.30;52.50
35497;DHT22;21609;49.298;6.844;2022-09-30T17:55:59;21.30;52.40
35497;DHT22;21609;49.298;6.844;2022-09-30T17:58:25;21.30;52.50
35497;DHT22;21609;49.298;6.844;2022-09-30T18:00:50;21.30;52.50
35497;DHT22;21609;49.298;6.844;2022-09-30T18:03:16;21.30;52.60
35497;DHT22;21609;49.298;6.844;2022-09-30T18:05:41;21.20;52.50
35497;DHT22;21609;49.298;6.844;2022-09-30T18:08:11;21.20;52.60
35497;DHT22;21609;49.298;6.844;2022-09-30T18:10:36;21.20;52.60
35497;DHT22;21609;49.298;6.844;2022-09-30T18:13:02;21.20;52.70
35497;DHT22;21609;49.298;6.844;2022-09-30T18:15:28;21.10;52.70
35497;DHT22;21609;49.298;6.844;2022-09-30T18:17:54;21.10;52.70
35497;DHT22;21609;49.298;6.844;2022-09-30T18:20:20;21.10;52.80
35497;DHT22;21609;49.298;6.844;2022-09-30T18:22:45;21.10;52.80
35497;DHT22;21609;49.298;6.844;2022-09-30T18:25:11;21.10;52.90
35497;DHT22;21609;49.298;6.844;2022-09-30T18:27:55;21.10;52.90
35497;DHT22;21609;49.298;6.844;2022-09-30T18:30:21;21.10;53.00
35497;DHT22;21609;49.298;6.844;2022-09-30T18:32:52;21.00;52.90
35497;DHT22;21609;49.298;6.844;2022-09-30T18:35:19;21.00;53.00
35497;DHT22;21609;49.298;6.844;2022-09-30T18:37:46;21.00;53.00
35497;DHT22;21609;49.298;6.844;2022-09-30T18:40:18;21.00;53.10
35497;DHT22;21609;49.298;6.844;2022-09-30T18:42:44;21.00;53.10
35497;DHT22;21609;49.298;6.844;2022-09-30T18:45:14;21.00;53.20
35497;DHT22;21609;49.298;6.844;2022-09-30T18:47:41;21.00;53.10
35497;DHT22;21609;49.298;6.844;2022-09-30T18:50:09;21.00;53.20
35497;DHT22;21609;49.298;6.844;2022-09-30T18:52:35;21.00;53.20
35497;DHT22;21609;49.298;6.844;2022-09-30T18:55:02;20.90;53.10
35497;DHT22;21609;49.298;6.844;2022-09-30T18:57:28;20.90;53.20